Time;durP1;ratioP1;P1;durP2;ratioP2;P2;SDS_P1;SDS_P2;PMS_P1;PMS_P2;Temp;Humidity;BMP_temperature;BMP_pressure;BME280_temperature;BME280_humidity;BME280_pressure;Samples;Min_cycle;Max_cycle;Signal;HPM_P1;HPM_P2
2023/06/01 00:01:38;;;;;;;13.57;8.47;;;22.20;68.70;;;;;;4973214;28;20027;-57
2023/06/01 00:04:07;;;;;;;13.02;9.02;;;22.20;69.10;;;;;;4971644;28;20047;-57
2023/06/01 00:06:33;;;;;;;11.13;9.18;;;22.20;69.30;;;;;;4989641;28;20093;-54
2023/06/01 00:08:59;;;;;;;12.87;8.93;;;22.20;69.30;;;;;;4976493;28;20606;-56
2023/06/01 00:11:26;;;;;;;12.75;9.57;;;22.20;69.10;;;;;;4976653;28;20117;-56
2023/06/01 00:13:52;;;;;;;11.93;8.90;;;22.10;69.30;;;;;;5013822;23;20047;-50
2023/06/01 00:16:18;;;;;;;13.23;9.80;;;22.10;69.20;;;;;;4974080;28;20423;-55
2023/06/01 00:18:45;;;;;;;14.60;10.45;;;22.10;69.70;;;;;;4975608;28;20034;-52
2023/06/01 00:21:11;;;;;;;13.20;10.15;;;22.10;70.00;;;;;;4991411;28;20043;-49
2023/06/01 00:23:40;;;;;;;13.83;9.97;;;22.10;70.10;;;;;;4974359;28;20035;-51
2023/06/01 00:26:07;;;;;;;14.30;9.80;;;22.10;69.90;;;;;;4976077;28;20023;-56
2023/06/01 00:28:34;;;;;;;12.70;10.05;;;22.10;70.00;;;;;;4975449;28;20512;-52
2023/06/01 00:31:00;;;;;;;;;;;22.10;70.10;;;;;;4974819;28;20484;-49
2023/06/01 00:33:26;;;;;;;14.02;10.25;;;22.00;69.20;;;;;;4975906;28;19949;-51
2023/06/01 00:35:52;;;;;;;11.45;9.50;;;22.00;70.60;;;;;;4975992;28;20077;-56
2023/06/01 00:38:19;;;;;;;;;;;21.90;70.80;;;;;;4976046;28;20030;-49
2023/06/01 00:40:45;;;;;;;17.88;10.30;;;21.90;70.10;;;;;;4967387;28;19910;-51
2023/06/01 00:43:11;;;;;;;19.10;11.27;;;21.90;70.60;;;;;;4975723;28;20096;-51
2023/06/01 00:45:37;;;;;;;17.97;11.77;;;21.80;70.70;;;;;;4974193;28;20062;-48
2023/06/01 00:48:04;;;;;;;16.27;10.60;;;21.80;70.80;;;;;;4973876;28;20432;-48
2023/06/01 00:50:30;;;;;;;14.77;10.77;;;21.80;71.00;;;;;;4974336;28;20027;-49
2023/06/01 00:52:58;;;;;;;19.77;11.25;;;21.80;71.80;;;;;;4974048;28;20027;-52
2023/06/01 00:55:25;;;;;;;14.68;12.02;;;21.70;71.80;;;;;;4974036;28;20549;-50
2023/06/01 00:57:52;;;;;;;15.00;11.60;;;21.70;73.10;;;;;;4975482;28;20046;-48
2023/06/01 01:00:18;;;;;;;;;;;21.70;72.50;;;;;;4975533;28;20034;-52
2023/06/01 01:02:44;;;;;;;18.27;12.48;;;21.70;71.40;;;;;;4975025;28;19910;-53
2023/06/01 01:05:10;;;;;;;17.08;12.02;;;21.70;71.90;;;;;;4973790;28;20033;-52
2023/06/01 01:07:57;;;;;;;19.48;12.55;;;21.70;71.70;;;;;;4974238;28;20395;-49
2023/06/01 01:10:32;;;;;;;14.25;11.63;;;21.70;70.80;;;;;;4974268;28;20035;-52
2023/06/01 01:13:26;;;;;;;15.00;12.07;;;21.70;72.50;;;;;;4975457;28;20029;-48
2023/06/01 01:16:01;;;;;;;16.48;11.82;;;21.70;72.90;;;;;;4990541;28;20027;-48
2023/06/01 01:18:37;;;;;;;20.33;12.20;;;21.60;73.40;;;;;;4956786;28;20495;-48
2023/06/01 01:21:21;;;;;;;16.88;12.27;;;21.60;74.20;;;;;;4974005;28;20037;-49
2023/06/01 01:24:06;;;;;;;19.75;12.05;;;21.60;73.90;;;;;;4973573;28;20031;-49
2023/06/01 01:27:08;;;;;;;27.20;13.60;;;21.60;73.90;;;;;;4973438;28;20034;-53
2023/06/01 01:29:37;;;;;;;17.08;13.13;;;21.60;72.40;;;;;;4971968;28;20862;-49
2023/06/01 01:32:05;;;;;;;19.45;13.80;;;21.50;73.70;;;;;;4973687;28;20039;-49
2023/06/01 01:34:32;;;;;;;16.33;12.60;;;21.40;74.00;;;;;;4975142;28;20114;-48
2023/06/01 01:36:59;;;;;;;20.83;12.50;;;21.40;74.20;;;;;;4973847;28;20062;-52
2023/06/01 01:39:25;;;;;;;17.85;12.15;;;21.40;74.30;;;;;;4974995;28;20059;-51
2023/06/01 01:41:51;;;;;;;20.42;12.88;;;21.40;74.20;;;;;;4973876;28;20077;-52
2023/06/01 01:44:18;;;;;;;20.67;12.90;;;21.40;74.50;;;;;;4973673;28;20042;-51
2023/06/01 01:46:59;;;;;;;17.48;13.55;;;21.40;74.50;;;;;;4973717;28;20058;-51
2023/06/01 01:49:30;;;;;;;20.30;12.90;;;21.40;74.00;;;;;;4973595;28;20063;-49
2023/06/01 01:52:12;;;;;;;28.05;13.02;;;21.40;73.80;;;;;;4973545;28;20399;-51
2023/06/01 01:54:41;;;;;;;15.43;11.82;;;21.40;74.20;;;;;;4989696;28;20046;-48
2023/06/01 01:57:08;;;;;;;14.57;12.43;;;21.40;73.90;;;;;;4973515;28;20027;-50
2023/06/01 01:59:35;;;;;;;15.07;12.63;;;21.40;74.30;;;;;;4989708;28;20487;-52
2023/06/01 02:02:02;;;;;;;19.15;12.70;;;21.40;75.00;;;;;;4974531;28;20058;-49
2023/06/01 02:04:29;;;;;;;15.20;12.32;;;21.40;75.40;;;;;;4972892;28;20066;-51
2023/06/01 02:06:55;;;;;;;15.07;12.65;;;21.40;75.40;;;;;;4967064;28;20082;-48
2023/06/01 02:09:21;;;;;;;15.80;12.88;;;21.40;75.00;;;;;;4972561;28;20035;-49
2023/06/01 02:11:47;;;;;;;14.43;13.03;;;21.40;75.20;;;;;;4972935;28;20040;-49
2023/06/01 02:14:12;;;;;;;15.67;13.63;;;21.30;75.30;;;;;;4972581;28;20521;-50
2023/06/01 02:16:38;;;;;;;16.33;12.48;;;21.30;75.90;;;;;;4972423;28;20542;-51
2023/06/01 02:19:04;;;;;;;17.25;12.90;;;21.30;76.50;;;;;;4972562;28;20034;-49
2023/06/01 02:21:31;;;;;;;16.38;13.02;;;21.30;76.50;;;;;;4972223;28;20518;-48
2023/06/01 02:24:04;;;;;;;19.13;13.68;;;21.30;77.00;;;;;;4972786;28;20031;-49
2023/06/01 02:26:30;;;;;;;21.45;13.55;;;21.30;77.10;;;;;;4972492;28;20039;-49
2023/06/01 02:28:56;;;;;;;17.58;14.38;;;21.30;77.60;;;;;;4956476;28;20181;-48
2023/06/01 02:31:22;;;;;;;17.95;13.73;;;21.30;77.50;;;;;;4971144;28;20045;-53
2023/06/01 02:33:50;;;;;;;17.30;14.20;;;21.30;77.50;;;;;;4971471;28;20431;-51
2023/06/01 02:36:16;;;;;;;21.60;14.82;;;21.30;77.30;;;;;;4971994;28;20034;-50
2023/06/01 02:38:43;;;;;;;17.00;14.98;;;21.30;77.10;;;;;;4972145;28;20027;-55
2023/06/01 02:41:09;;;;;;;17.73;14.85;;;21.20;76.90;;;;;;4972493;28;20057;-49
2023/06/01 02:43:35;;;;;;;17.60;15.03;;;21.20;76.70;;;;;;4986998;28;20133;-50
2023/06/01 02:46:01;;;;;;;19.73;15.40;;;21.20;76.80;;;;;;4971640;28;20125;-49
2023/06/01 02:48:27;;;;;;;19.40;14.48;;;21.20;76.80;;;;;;4972213;28;20031;-51
2023/06/01 02:50:55;;;;;;;20.27;14.77;;;21.20;76.80;;;;;;4971812;28;20027;-49
2023/06/01 02:53:21;;;;;;;23.75;17.83;;;21.20;77.30;;;;;;4971741;28;20046;-54
2023/06/01 02:55:47;;;;;;;19.13;17.13;;;21.10;78.90;;;;;;4972293;28;20117;-50
2023/06/01 02:58:32;;;;;;;18.20;16.30;;;21.00;79.00;;;;;;4971889;28;20530;-52
2023/06/01 03:01:11;;;;;;;19.73;17.63;;;21.00;79.80;;;;;;4962660;28;20027;-48
2023/06/01 03:03:38;;;;;;;18.80;16.85;;;21.00;79.80;;;;;;4981188;28;20027;-49
2023/06/01 03:06:05;;;;;;;23.55;17.98;;;21.10;80.50;;;;;;4972085;28;20031;-52
2023/06/01 03:08:58;;;;;;;21.25;16.88;;;21.10;80.50;;;;;;4972835;28;20110;-48
2023/06/01 03:11:42;;;;;;;22.88;16.38;;;21.10;80.30;;;;;;4973228;28;20034;-50
2023/06/01 03:14:08;;;;;;;18.65;16.58;;;21.20;80.90;;;;;;4955022;28;20035;-51
2023/06/01 03:16:35;;;;;;;22.17;17.08;;;21.20;80.90;;;;;;4967502;28;20042;-51
2023/06/01 03:19:09;;;;;;;20.00;17.08;;;21.10;82.50;;;;;;4971899;28;20081;-50
2023/06/01 03:21:36;;;;;;;20.00;17.05;;;21.10;81.90;;;;;;4972033;28;20067;-53
2023/06/01 03:24:03;;;;;;;18.42;16.45;;;21.10;81.60;;;;;;4987808;28;20542;-52
2023/06/01 03:26:28;;;;;;;18.50;16.60;;;21.10;82.40;;;;;;4971616;28;20035;-53
2023/06/01 03:28:55;;;;;;;19.63;16.33;;;21.10;82.70;;;;;;4971466;28;20077;-53
2023/06/01 03:31:21;;;;;;;20.38;17.13;;;21.10;82.70;;;;;;4972358;28;20027;-54
2023/06/01 03:33:48;;;;;;;;;;;21.10;83.20;;;;;;4971771;28;20518;-50
2023/06/01 03:36:14;;;;;;;23.67;18.00;;;21.10;79.90;;;;;;4971312;28;20005;-49
2023/06/01 03:38:41;;;;;;;22.40;18.35;;;21.00;82.70;;;;;;4970701;28;20436;-52
2023/06/01 03:41:07;;;;;;;23.58;19.05;;;21.00;83.60;;;;;;4970688;28;20030;-51
2023/06/01 03:43:33;;;;;;;20.65;18.35;;;21.10;84.10;;;;;;4970009;28;20039;-49
2023/06/01 03:45:59;;;;;;;21.63;19.42;;;21.00;83.90;;;;;;4972578;28;20074;-50
2023/06/01 03:48:25;;;;;;;21.40;19.20;;;21.10;83.90;;;;;;4970519;28;20027;-48
2023/06/01 03:50:51;;;;;;;23.33;19.35;;;21.00;84.00;;;;;;4970846;28;20038;-50
2023/06/01 03:53:17;;;;;;;30.10;18.57;;;21.00;84.60;;;;;;4972446;28;20039;-49
2023/06/01 03:55:43;;;;;;;22.05;18.05;;;21.00;85.40;;;;;;4971378;28;20358;-52
2023/06/01 03:58:21;;;;;;;21.45;19.13;;;21.00;85.90;;;;;;4971354;28;20038;-49
2023/06/01 04:00:47;;;;;;;29.10;19.45;;;21.00;86.40;;;;;;4969860;28;20045;-53
2023/06/01 04:03:15;;;;;;;36.92;19.65;;;21.00;86.30;;;;;;4968247;28;20027;-51
2023/06/01 04:05:41;;;;;;;24.23;19.35;;;21.00;85.90;;;;;;4952264;29;20035;-54
2023/06/01 04:08:08;;;;;;;24.70;19.45;;;21.00;86.10;;;;;;4968777;28;20567;-49
2023/06/01 04:10:35;;;;;;;21.50;19.15;;;21.00;85.80;;;;;;4968327;28;20034;-49
2023/06/01 04:13:01;;;;;;;25.67;21.15;;;21.00;86.30;;;;;;4952036;29;20399;-49
2023/06/01 04:15:29;;;;;;;25.77;19.25;;;21.00;86.50;;;;;;4951736;29;20023;-51
2023/06/01 04:17:55;;;;;;;28.58;17.85;;;21.00;87.10;;;;;;4967672;28;20023;-49
2023/06/01 04:20:23;;;;;;;23.95;20.67;;;20.90;86.40;;;;;;4967538;28;20040;-53
2023/06/01 04:22:49;;;;;;;22.02;17.90;;;20.90;86.50;;;;;;4967607;28;20122;-51
2023/06/01 04:25:20;;;;;;;23.27;19.90;;;20.90;87.40;;;;;;4952246;29;20047;-49
2023/06/01 04:27:51;;;;;;;22.42;18.17;;;20.90;87.10;;;;;;4951874;29;20414;-52
2023/06/01 04:30:17;;;;;;;22.25;19.60;;;20.90;87.20;;;;;;4952012;29;20094;-51
2023/06/01 04:32:47;;;;;;;22.73;20.10;;;20.80;88.30;;;;;;4952014;28;20023;-50
2023/06/01 04:35:14;;;;;;;25.35;20.02;;;20.80;88.30;;;;;;4968186;28;20030;-48
2023/06/01 04:37:41;;;;;;;25.48;20.58;;;20.70;88.60;;;;;;4953174;28;20102;-52
2023/06/01 04:40:09;;;;;;;24.60;20.08;;;20.70;88.80;;;;;;4951943;29;20034;-52
2023/06/01 04:42:40;;;;;;;26.08;21.33;;;20.60;89.10;;;;;;4951849;28;20063;-49
2023/06/01 04:45:10;;;;;;;24.92;19.08;;;20.70;88.90;;;;;;4951957;29;20031;-49
2023/06/01 04:47:39;;;;;;;25.70;19.98;;;20.70;89.00;;;;;;4951972;28;20503;-50
2023/06/01 04:50:09;;;;;;;24.33;21.67;;;20.70;89.20;;;;;;4951928;29;20148;-49
2023/06/01 04:52:39;;;;;;;28.08;21.63;;;20.50;90.90;;;;;;4954815;28;20051;-49
2023/06/01 04:55:06;;;;;;;24.92;21.92;;;20.40;91.80;;;;;;4988552;28;20042;-49
2023/06/01 04:57:35;;;;;;;21.80;19.15;;;20.40;91.80;;;;;;4974477;28;20062;-50
2023/06/01 05:00:13;;;;;;;23.95;20.15;;;20.50;91.80;;;;;;4974616;28;20054;-53
2023/06/01 05:02:43;;;;;;;24.40;19.40;;;20.40;92.40;;;;;;4974576;28;20031;-56
2023/06/01 05:05:10;;;;;;;22.67;20.30;;;20.50;92.50;;;;;;4958480;28;20057;-48
2023/06/01 05:07:38;;;;;;;;;;;20.50;92.30;;;;;;4974783;28;20027;-52
2023/06/01 05:10:09;;;;;;;23.87;19.00;;;20.50;91.30;;;;;;4974636;28;20334;-52
2023/06/01 05:12:53;;;;;;;21.15;18.95;;;20.50;91.40;;;;;;4974179;28;20073;-53
2023/06/01 05:15:19;;;;;;;25.52;20.25;;;20.60;91.10;;;;;;4974401;28;20033;-52
2023/06/01 05:17:47;;;;;;;24.95;20.23;;;20.70;90.70;;;;;;4974102;28;20031;-49
2023/06/01 05:20:15;;;;;;;21.33;19.00;;;20.50;91.70;;;;;;4974271;28;20054;-50
2023/06/01 05:22:44;;;;;;;22.00;19.25;;;20.50;91.80;;;;;;4974114;28;20125;-51
2023/06/01 05:25:10;;;;;;;25.55;20.30;;;20.60;91.50;;;;;;4974175;28;20559;-48
2023/06/01 05:27:37;;;;;;;26.98;20.80;;;20.70;91.90;;;;;;4973860;28;20384;-51
2023/06/01 05:30:04;;;;;;;20.13;17.55;;;20.70;92.30;;;;;;4974081;28;20035;-49
2023/06/01 05:32:30;;;;;;;26.63;18.60;;;20.70;92.00;;;;;;4974000;28;20575;-48
2023/06/01 05:35:04;;;;;;;29.90;19.90;;;20.80;92.00;;;;;;4973954;28;20414;-47
2023/06/01 05:37:30;;;;;;;18.98;16.92;;;20.80;92.40;;;;;;4973763;28;20496;-48
2023/06/01 05:39:56;;;;;;;19.27;16.63;;;20.80;91.80;;;;;;4973863;28;20030;-48
2023/06/01 05:42:22;;;;;;;21.50;18.27;;;20.80;91.20;;;;;;4973841;28;20042;-48
2023/06/01 05:44:48;;;;;;;22.95;17.13;;;20.80;91.10;;;;;;4973841;28;20027;-50
2023/06/01 05:47:14;;;;;;;18.70;16.63;;;20.90;91.40;;;;;;4973677;28;20443;-47
2023/06/01 05:49:41;;;;;;;18.48;16.58;;;20.90;91.30;;;;;;4973814;28;20035;-47
2023/06/01 05:52:09;;;;;;;21.77;15.48;;;20.90;91.10;;;;;;4973563;28;20038;-54
2023/06/01 05:54:35;;;;;;;23.65;17.38;;;21.00;90.70;;;;;;4973523;28;20035;-48
2023/06/01 05:57:01;;;;;;;23.02;16.52;;;21.00;90.70;;;;;;4973521;28;20519;-48
2023/06/01 05:59:27;;;;;;;21.15;17.55;;;21.10;90.90;;;;;;4973498;28;20108;-48
2023/06/01 06:01:53;;;;;;;16.15;12.93;;;21.20;90.60;;;;;;4973620;28;20369;-47
2023/06/01 06:04:19;;;;;;;18.05;13.82;;;21.30;89.90;;;;;;4973633;28;20031;-48
2023/06/01 06:06:45;;;;;;;18.20;12.10;;;21.30;88.10;;;;;;4974804;28;20655;-53
2023/06/01 06:09:13;;;;;;;14.17;12.60;;;21.30;86.30;;;;;;4973303;28;20431;-50
2023/06/01 06:11:40;;;;;;;17.08;11.73;;;21.40;84.30;;;;;;4973289;28;20031;-48
2023/06/01 06:14:05;;;;;;;18.20;11.88;;;21.40;83.50;;;;;;5015594;23;20104;-57
2023/06/01 06:16:31;;;;;;;17.83;12.73;;;21.50;82.40;;;;;;4995489;28;20490;-58
2023/06/01 06:18:57;;;;;;;18.70;12.18;;;21.50;82.10;;;;;;4995163;28;20034;-56
2023/06/01 06:21:23;;;;;;;20.95;12.63;;;21.60;81.80;;;;;;4994201;28;20036;-58
2023/06/01 06:23:49;;;;;;;17.02;13.13;;;21.60;81.20;;;;;;4995400;28;20073;-58
2023/06/01 06:26:15;;;;;;;19.02;13.18;;;21.60;80.70;;;;;;4995576;28;20066;-58
2023/06/01 06:28:40;;;;;;;20.23;15.27;;;21.60;80.10;;;;;;4995345;28;20058;-58
2023/06/01 06:31:06;;;;;;;14.98;13.13;;;21.70;81.00;;;;;;4995083;28;20030;-58
2023/06/01 06:33:32;;;;;;;18.90;13.10;;;21.70;80.10;;;;;;4995200;28;20030;-58
2023/06/01 06:35:58;;;;;;;18.57;12.60;;;21.60;78.60;;;;;;5010113;28;20467;-58
2023/06/01 06:38:24;;;;;;;18.70;13.10;;;21.70;78.80;;;;;;5009564;28;20129;-58
2023/06/01 06:40:51;;;;;;;17.20;13.60;;;21.70;78.80;;;;;;4994587;28;20037;-57
2023/06/01 06:43:17;;;;;;;20.35;13.75;;;21.80;78.70;;;;;;4993752;28;20038;-58
2023/06/01 06:45:43;;;;;;;19.08;13.68;;;21.80;79.40;;;;;;4994765;28;20030;-58
2023/06/01 06:48:09;;;;;;;18.15;14.10;;;21.90;79.00;;;;;;4994845;28;20451;-57
2023/06/01 06:50:36;;;;;;;19.40;13.65;;;21.90;79.00;;;;;;4994680;28;20438;-58
2023/06/01 06:53:02;;;;;;;19.58;14.45;;;21.90;78.70;;;;;;4995077;28;20069;-58
2023/06/01 06:55:28;;;;;;;18.98;14.50;;;21.90;79.00;;;;;;4994272;28;20030;-57
2023/06/01 06:57:54;;;;;;;16.20;13.50;;;22.00;79.10;;;;;;4994639;28;20480;-58
2023/06/01 07:00:20;;;;;;;19.02;11.82;;;22.00;78.60;;;;;;4994639;28;20097;-58
2023/06/01 07:02:46;;;;;;;16.73;12.50;;;22.00;76.60;;;;;;4994230;28;20049;-58
2023/06/01 07:05:12;;;;;;;16.37;13.37;;;22.00;76.40;;;;;;4994157;28;20109;-57
2023/06/01 07:07:40;;;;;;;18.07;14.33;;;22.10;76.80;;;;;;5009715;28;20466;-57
2023/06/01 07:10:07;;;;;;;16.10;12.68;;;22.10;77.20;;;;;;4994008;28;20092;-58
2023/06/01 07:12:33;;;;;;;15.70;12.82;;;22.20;76.80;;;;;;4994301;28;20121;-58
2023/06/01 07:15:00;;;;;;;16.85;12.82;;;22.20;77.00;;;;;;4994026;28;20491;-58
2023/06/01 07:17:26;;;;;;;17.95;11.30;;;22.30;76.30;;;;;;4993921;28;20042;-58
2023/06/01 07:19:52;;;;;;;14.40;11.23;;;22.20;75.80;;;;;;5009733;28;20080;-58
2023/06/01 07:22:18;;;;;;;46.17;16.80;;;22.20;75.00;;;;;;4994458;28;20057;-57
2023/06/01 07:24:44;;;;;;;16.25;11.95;;;22.30;75.00;;;;;;4998194;28;20183;-55
2023/06/01 07:27:11;;;;;;;19.27;12.80;;;22.40;75.20;;;;;;4997599;28;20035;-53
2023/06/01 07:29:36;;;;;;;15.90;12.23;;;22.40;74.50;;;;;;5014278;28;20113;-57
2023/06/01 07:32:02;;;;;;;14.47;11.70;;;22.50;75.30;;;;;;4994321;28;20058;-52
2023/06/01 07:34:28;;;;;;;18.60;12.55;;;22.50;74.90;;;;;;4992474;28;20076;-51
2023/06/01 07:36:58;;;;;;;19.13;12.57;;;22.60;74.80;;;;;;4992697;28;20026;-53
2023/06/01 07:39:25;;;;;;;19.83;13.93;;;22.60;74.30;;;;;;5007575;28;20062;-53
2023/06/01 07:41:53;;;;;;;;;;;22.70;74.20;;;;;;4992884;28;20029;-54
2023/06/01 07:44:20;;;;;;;16.27;13.23;;;22.70;73.70;;;;;;4992329;28;19937;-51
2023/06/01 07:46:46;;;;;;;18.17;13.75;;;22.70;73.80;;;;;;4992461;28;20045;-50
2023/06/01 07:49:13;;;;;;;16.42;13.52;;;22.80;73.00;;;;;;4992307;28;20034;-49
2023/06/01 07:51:43;;;;;;;16.05;13.80;;;22.80;72.70;;;;;;4992334;28;20038;-50
2023/06/01 07:54:09;;;;;;;14.98;13.18;;;22.80;73.90;;;;;;4991080;28;20046;-50
2023/06/01 07:56:35;;;;;;;17.52;14.45;;;22.90;73.50;;;;;;4991211;28;20093;-51
2023/06/01 07:59:01;;;;;;;17.83;14.17;;;22.90;73.90;;;;;;4992147;28;20487;-51
2023/06/01 08:01:27;;;;;;;23.05;13.70;;;23.00;73.10;;;;;;4992332;28;20069;-52
2023/06/01 08:03:55;;;;;;;14.00;12.40;;;23.10;72.50;;;;;;4974880;28;20037;-51
2023/06/01 08:06:22;;;;;;;17.58;12.48;;;23.10;71.70;;;;;;4992290;28;20026;-49
2023/06/01 08:08:49;;;;;;;18.40;12.75;;;23.10;70.40;;;;;;5007101;28;20036;-52
2023/06/01 08:11:15;;;;;;;16.23;11.70;;;23.20;69.90;;;;;;4992164;28;20031;-53
2023/06/01 08:13:45;;;;;;;14.55;12.20;;;23.10;70.00;;;;;;4992001;28;20026;-51
2023/06/01 08:16:13;;;;;;;16.33;12.98;;;23.20;69.30;;;;;;4992290;28;20022;-52
2023/06/01 08:18:39;;;;;;;15.00;12.55;;;23.30;69.00;;;;;;4990899;28;20157;-52
2023/06/01 08:21:05;;;;;;;17.07;12.17;;;23.30;69.20;;;;;;5007296;28;20077;-50
2023/06/01 08:23:31;;;;;;;17.97;12.23;;;23.30;68.70;;;;;;4991992;28;20041;-50
2023/06/01 08:25:57;;;;;;;13.40;12.00;;;23.40;68.70;;;;;;4992679;28;20113;-52
2023/06/01 08:28:22;;;;;;;14.20;12.23;;;23.40;68.60;;;;;;5010103;28;20113;-52
2023/06/01 08:30:48;;;;;;;18.50;12.13;;;23.50;67.90;;;;;;4995889;28;20042;-51
2023/06/01 08:33:15;;;;;;;15.50;13.53;;;23.50;68.00;;;;;;4994475;28;20108;-50
2023/06/01 08:35:41;;;;;;;18.58;11.88;;;23.50;67.80;;;;;;4995697;28;20503;-55
2023/06/01 08:38:06;;;;;;;19.07;11.87;;;23.60;67.10;;;;;;5010638;28;20058;-50
2023/06/01 08:40:32;;;;;;;14.93;11.50;;;23.60;66.50;;;;;;4995657;28;20040;-50
2023/06/01 08:43:18;;;;;;;17.10;11.60;;;23.70;66.80;;;;;;5010717;28;20097;-52
2023/06/01 08:45:46;;;;;;;15.27;12.27;;;23.70;68.00;;;;;;4995744;28;20045;-52
2023/06/01 08:48:16;;;;;;;14.88;12.02;;;23.80;67.90;;;;;;5010417;28;20038;-50
2023/06/01 08:50:43;;;;;;;13.98;11.20;;;24.00;66.80;;;;;;4995463;28;20031;-51
2023/06/01 08:53:09;;;;;;;17.48;11.52;;;24.10;65.10;;;;;;4995324;28;20097;-49
2023/06/01 08:55:35;;;;;;;13.57;10.98;;;24.00;65.10;;;;;;4995480;28;20522;-53
2023/06/01 08:58:01;;;;;;;19.10;11.13;;;24.00;64.90;;;;;;4995314;28;20117;-51
2023/06/01 09:00:28;;;;;;;14.90;11.03;;;24.10;64.10;;;;;;4994183;28;20034;-52
2023/06/01 09:02:53;;;;;;;13.43;10.98;;;24.10;63.30;;;;;;4995227;28;20273;-51
2023/06/01 09:05:19;;;;;;;13.43;9.60;;;24.20;62.90;;;;;;4995188;28;20018;-51
2023/06/01 09:07:46;;;;;;;22.37;11.73;;;24.20;61.80;;;;;;4995059;28;20043;-50
2023/06/01 09:10:12;;;;;;;13.43;10.75;;;24.20;62.60;;;;;;5010208;28;20092;-55
2023/06/01 09:12:40;;;;;;;14.97;9.17;;;24.30;62.00;;;;;;4995179;28;20030;-54
2023/06/01 09:15:06;;;;;;;13.55;9.05;;;24.30;60.70;;;;;;4994893;28;20081;-54
2023/06/01 09:17:33;;;;;;;14.50;9.70;;;24.30;60.50;;;;;;4994864;28;20023;-51
2023/06/01 09:19:58;;;;;;;16.58;10.82;;;24.40;61.00;;;;;;4995033;28;20088;-52
2023/06/01 09:22:24;;;;;;;18.03;11.03;;;24.40;62.40;;;;;;4994845;28;20034;-53
2023/06/01 09:24:58;;;;;;;13.27;9.37;;;24.40;61.90;;;;;;4994947;28;20507;-54
2023/06/01 09:27:24;;;;;;;13.23;10.27;;;24.50;60.60;;;;;;4994712;28;20034;-51
2023/06/01 09:29:56;;;;;;;13.45;10.60;;;24.40;60.80;;;;;;5009908;28;20489;-54
2023/06/01 09:32:22;;;;;;;12.52;10.32;;;24.50;60.90;;;;;;4994618;28;20034;-51
2023/06/01 09:34:48;;;;;;;14.33;11.50;;;24.50;61.30;;;;;;4994679;28;20027;-52
2023/06/01 09:37:15;;;;;;;18.77;10.93;;;24.60;61.10;;;;;;5009620;28;20496;-53
2023/06/01 09:39:41;;;;;;;15.05;10.85;;;24.70;61.60;;;;;;4994660;28;20157;-52
2023/06/01 09:42:07;;;;;;;12.77;9.60;;;24.80;61.90;;;;;;5009858;28;20093;-52
2023/06/01 09:44:35;;;;;;;16.15;12.23;;;24.90;62.10;;;;;;4994465;28;20056;-51
2023/06/01 09:47:05;;;;;;;12.60;8.93;;;25.00;60.20;;;;;;4994382;28;20476;-53
2023/06/01 09:49:39;;;;;;;9.82;8.55;;;25.20;59.80;;;;;;5009742;28;20109;-48
2023/06/01 09:52:05;;;;;;;13.82;7.97;;;25.30;60.80;;;;;;4994346;28;20501;-52
2023/06/01 09:54:32;;;;;;;10.93;8.60;;;25.50;59.70;;;;;;4994481;28;20022;-53
2023/06/01 09:57:00;;;;;;;11.40;8.00;;;25.60;58.70;;;;;;4994324;28;20077;-55
2023/06/01 09:59:30;;;;;;;12.00;8.15;;;25.60;57.90;;;;;;5009365;28;20042;-52
2023/06/01 10:01:58;;;;;;;14.73;9.30;;;25.70;57.30;;;;;;4994237;28;20035;-52
2023/06/01 10:04:28;;;;;;;11.40;9.05;;;25.80;60.00;;;;;;5009163;28;20041;-53
2023/06/01 10:06:57;;;;;;;9.52;7.70;;;25.90;58.20;;;;;;4994175;28;20058;-52
2023/06/01 10:09:26;;;;;;;10.25;8.13;;;26.00;58.30;;;;;;4994065;28;20034;-53
2023/06/01 10:11:55;;;;;;;12.02;9.13;;;26.20;58.00;;;;;;4993996;28;20113;-53
2023/06/01 10:14:23;;;;;;;10.93;8.95;;;26.30;56.40;;;;;;4993779;28;20442;-53
2023/06/01 10:16:53;;;;;;;11.13;8.63;;;26.40;57.80;;;;;;4993986;28;20096;-54
2023/06/01 10:19:21;;;;;;;13.27;8.32;;;26.40;57.00;;;;;;4992966;28;20085;-52
2023/06/01 10:21:47;;;;;;;11.95;8.60;;;26.50;57.00;;;;;;4990211;28;20030;-51
2023/06/01 10:24:14;;;;;;;11.30;9.25;;;26.50;58.30;;;;;;4992272;28;20087;-52
2023/06/01 10:26:49;;;;;;;13.45;9.43;;;26.70;58.10;;;;;;4980448;28;20069;-55
2023/06/01 10:29:18;;;;;;;15.65;9.70;;;26.80;57.90;;;;;;4975181;28;20065;-53
2023/06/01 10:31:44;;;;;;;16.50;9.63;;;26.90;55.50;;;;;;5001781;28;20391;-53
2023/06/01 10:34:11;;;;;;;12.85;9.50;;;27.00;55.30;;;;;;4984422;28;20014;-50
2023/06/01 10:36:52;;;;;;;15.25;9.13;;;27.10;57.10;;;;;;4985691;28;20038;-51
2023/06/01 10:39:26;;;;;;;16.90;10.48;;;27.10;53.40;;;;;;4985882;28;20412;-52
2023/06/01 10:41:54;;;;;;;12.30;9.48;;;27.20;54.50;;;;;;4985117;28;20041;-49
2023/06/01 10:44:41;;;;;;;12.15;9.38;;;27.20;53.10;;;;;;4993924;28;20046;-53
2023/06/01 10:47:32;;;;;;;14.18;9.32;;;27.10;53.50;;;;;;4981802;28;20080;-49
2023/06/01 10:49:58;;;;;;;13.98;9.90;;;27.10;53.40;;;;;;4974608;28;20081;-52
2023/06/01 10:52:35;;;;;;;13.07;9.23;;;27.10;52.80;;;;;;4989545;28;20042;-51
2023/06/01 10:55:10;;;;;;;;;;;27.20;53.30;;;;;;4986399;28;20026;-50
2023/06/01 10:57:44;;;;;;;11.38;8.25;;;27.30;54.20;;;;;;4976418;28;19916;-54
2023/06/01 11:00:13;;;;;;;10.52;8.32;;;27.40;53.90;;;;;;4980044;28;20034;-51
2023/06/01 11:03:03;;;;;;;8.45;7.15;;;27.50;53.30;;;;;;4980731;28;20472;-52
2023/06/01 11:05:51;;;;;;;13.52;7.90;;;27.80;53.40;;;;;;4971927;28;20034;-50
2023/06/01 11:08:22;;;;;;;12.05;8.18;;;28.10;52.20;;;;;;4979923;28;20034;-52
2023/06/01 11:10:53;;;;;;;11.55;9.13;;;28.40;51.70;;;;;;4973614;28;20051;-51
2023/06/01 11:13:29;;;;;;;10.85;8.40;;;28.50;50.30;;;;;;5003423;28;20125;-50
2023/06/01 11:16:07;;;;;;;11.25;8.00;;;28.50;51.60;;;;;;4995818;28;20088;-53
2023/06/01 11:18:42;;;;;;;10.65;7.57;;;28.40;51.30;;;;;;4983675;28;20027;-49
2023/06/01 11:21:21;;;;;;;11.73;7.60;;;28.40;52.50;;;;;;4981651;28;20035;-51
2023/06/01 11:23:48;;;;;;;10.82;9.73;;;28.40;51.50;;;;;;4979844;28;20033;-52
2023/06/01 11:26:18;;;;;;;12.48;9.15;;;28.50;50.40;;;;;;4963963;28;20146;-53
2023/06/01 11:28:46;;;;;;;13.02;8.82;;;28.50;51.50;;;;;;4978746;28;20031;-55
2023/06/01 11:31:15;;;;;;;13.77;9.00;;;28.60;50.50;;;;;;4979938;28;20038;-50
2023/06/01 11:33:47;;;;;;;10.75;8.88;;;28.50;50.50;;;;;;4974070;28;20119;-51
2023/06/01 11:36:14;;;;;;;14.23;9.55;;;28.30;50.70;;;;;;4979756;28;20113;-53
2023/06/01 11:38:43;;;;;;;11.60;7.95;;;28.20;50.50;;;;;;4980599;28;20120;-53
2023/06/01 11:41:09;;;;;;;9.27;7.32;;;28.20;51.00;;;;;;4982063;28;20035;-51
2023/06/01 11:43:35;;;;;;;12.98;7.45;;;28.40;51.80;;;;;;4988560;28;20087;-50
2023/06/01 11:46:11;;;;;;;8.63;7.18;;;28.60;52.10;;;;;;4978924;28;20029;-52
2023/06/01 11:48:37;;;;;;;10.70;7.10;;;28.70;51.60;;;;;;4980861;28;20042;-53
2023/06/01 11:51:04;;;;;;;12.88;7.13;;;28.70;51.90;;;;;;4981008;28;20047;-50
2023/06/01 11:53:31;;;;;;;9.63;7.13;;;28.70;52.20;;;;;;5003460;28;20066;-49
2023/06/01 11:55:58;;;;;;;7.90;6.45;;;28.60;50.20;;;;;;4993229;28;20430;-50
2023/06/01 11:58:28;;;;;;;;;;;28.60;50.90;;;;;;4998560;28;20122;-52
2023/06/01 12:00:55;;;;;;;11.02;7.35;;;28.60;51.40;;;;;;4974979;28;19961;-52
2023/06/01 12:03:23;;;;;;;12.60;7.70;;;28.70;49.70;;;;;;5006680;28;20030;-50
2023/06/01 12:05:49;;;;;;;12.50;7.43;;;29.00;49.50;;;;;;4995975;28;20037;-50
2023/06/01 12:08:23;;;;;;;14.20;8.20;;;29.20;51.10;;;;;;5004668;28;20030;-51
2023/06/01 12:10:51;;;;;;;11.52;7.47;;;29.60;51.50;;;;;;4981993;28;20066;-50
2023/06/01 12:13:18;;;;;;;9.45;7.30;;;29.80;50.40;;;;;;4992026;28;20509;-50
2023/06/01 12:15:45;;;;;;;10.77;7.47;;;30.00;48.20;;;;;;4999152;28;20414;-53
2023/06/01 12:18:11;;;;;;;10.02;7.93;;;30.10;48.70;;;;;;4988334;28;20110;-52
2023/06/01 12:20:41;;;;;;;8.45;6.90;;;30.20;48.70;;;;;;4978308;28;20035;-52
2023/06/01 12:23:12;;;;;;;10.23;6.72;;;30.40;48.80;;;;;;4980908;28;20392;-50
2023/06/01 12:25:48;;;;;;;9.48;7.60;;;30.60;49.70;;;;;;5003600;28;20054;-52
2023/06/01 12:28:14;;;;;;;8.03;6.60;;;30.70;48.30;;;;;;4983675;28;20261;-52
2023/06/01 12:30:40;;;;;;;12.00;6.65;;;30.80;48.00;;;;;;4985816;28;20027;-50
2023/06/01 12:33:06;;;;;;;10.77;6.55;;;31.00;48.20;;;;;;4990582;28;20030;-49
2023/06/01 12:35:32;;;;;;;9.85;6.78;;;31.10;47.20;;;;;;4979116;28;20027;-50
2023/06/01 12:38:05;;;;;;;9.50;6.60;;;31.20;47.90;;;;;;4990106;28;20114;-51
2023/06/01 12:40:31;;;;;;;7.82;6.60;;;31.40;48.30;;;;;;4985822;28;20031;-54